sensor_id;sensor_type;location;lat;lon;timestamp;pressure;altitude;pressure_sealevel;temperature;humidity
64019;BME280;66942;52.138;5.216;2023-06-10T00:02:17;101540.0;;;27.63;35.6
64019;BME280;66942;52.138;5.216;2023-06-10T00:03:54;101543.0;;;27.57;36.28
64019;BME280;66942;52.138;5.216;2023-06-10T00:05:30;101539.0;;;27.63;35.87
64019;BME280;66942;52.138;5.216;2023-06-10T00:07:06;101539.0;;;27.73;34.78
64019;BME280;66942;52.138;5.216;2023-06-10T00:10:18;101542.0;;;27.54;36.32
64019;BME280;66942;52.138;5.216;2023-06-10T00:11:55;101540.0;;;27.48;36.54
64019;BME280;66942;52.138;5.216;2023-06-10T00:13:31;101540.0;;;27.52;34.97
64019;BME280;66942;52.138;5.216;2023-06-10T00:16:44;101548.0;;;27.41;35.96
64019;BME280;66942;52.138;5.216;2023-06-10T00:18:21;101547.0;;;27.42;35.64
64019;BME280;66942;52.138;5.216;2023-06-10T00:19:57;101545.0;;;27.52;35.21
64019;BME280;66942;52.138;5.216;2023-06-10T00:23:10;101543.0;;;27.53;35.35
64019;BME280;66942;52.138;5.216;2023-06-10T00:24:46;101547.0;;;27.46;36.03
64019;BME280;66942;52.138;5.216;2023-06-10T00:26:23;101541.0;;;27.47;35.29
64019;BME280;66942;52.138;5.216;2023-06-10T00:29:35;101549.0;;;27.4;35.96
64019;BME280;66942;52.138;5.216;2023-06-10T00:31:11;101550.0;;;27.25;36.37
64019;BME280;66942;52.138;5.216;2023-06-10T00:32:47;101549.0;;;27.31;36.01
64019;BME280;66942;52.138;5.216;2023-06-10T00:34:23;101552.0;;;27.25;36.47
64019;BME280;66942;52.138;5.216;2023-06-10T00:37:36;101552.0;;;27.35;35.35
64019;BME280;66942;52.138;5.216;2023-06-10T00:39:12;101552.0;;;27.2;36.17
64019;BME280;66942;52.138;5.216;2023-06-10T00:40:48;101558.0;;;27.22;36.43
64019;BME280;66942;52.138;5.216;2023-06-10T00:44:00;101555.0;;;27.15;36.39
64019;BME280;66942;52.138;5.216;2023-06-10T00:45:37;101555.0;;;27.08;36.22
64019;BME280;66942;52.138;5.216;2023-06-10T00:47:13;101552.0;;;27.1;36.19
64019;BME280;66942;52.138;5.216;2023-06-10T00:50:26;101557.0;;;27.02;36.33
64019;BME280;66942;52.138;5.216;2023-06-10T00:52:03;101555.0;;;27.01;36.18
64019;BME280;66942;52.138;5.216;2023-06-10T00:53:40;101555.0;;;26.79;36.54
64019;BME280;66942;52.138;5.216;2023-06-10T00:55:17;101560.0;;;26.69;36.79
64019;BME280;66942;52.138;5.216;2023-06-10T00:58:30;101558.0;;;26.69;37.01
64019;BME280;66942;52.138;5.216;2023-06-10T01:00:07;101559.0;;;26.64;37.51
64019;BME280;66942;52.138;5.216;2023-06-10T01:01:44;101556.0;;;26.55;37.53
64019;BME280;66942;52.138;5.216;2023-06-10T01:04:59;101555.0;;;26.46;37.24
64019;BME280;66942;52.138;5.216;2023-06-10T01:06:39;101561.0;;;26.53;37.28
64019;BME280;66942;52.138;5.216;2023-06-10T01:08:28;101560.0;;;26.42;37.35
64019;BME280;66942;52.138;5.216;2023-06-10T01:10:12;101560.0;;;26.6;36.67
64019;BME280;66942;52.138;5.216;2023-06-10T01:13:43;101559.0;;;26.55;36.65
64019;BME280;66942;52.138;5.216;2023-06-10T01:15:21;101562.0;;;26.56;36.78
64019;BME280;66942;52.138;5.216;2023-06-10T01:16:58;101563.0;;;26.48;37.15
64019;BME280;66942;52.138;5.216;2023-06-10T01:18:36;101562.0;;;26.28;37.68
64019;BME280;66942;52.138;5.216;2023-06-10T01:21:48;101565.0;;;26.2;37.56
64019;BME280;66942;52.138;5.216;2023-06-10T01:23:25;101564.0;;;26.06;38.08
64019;BME280;66942;52.138;5.216;2023-06-10T01:25:01;101567.0;;;26.05;38.11
64019;BME280;66942;52.138;5.216;2023-06-10T01:26:37;101566.0;;;26.09;37.64
64019;BME280;66942;52.138;5.216;2023-06-10T01:30:00;101565.0;;;26.15;37.67
64019;BME280;66942;52.138;5.216;2023-06-10T01:31:48;101562.0;;;26.1;37.46
64019;BME280;66942;52.138;5.216;2023-06-10T01:33:29;101563.0;;;26.08;37.81
64019;BME280;66942;52.138;5.216;2023-06-10T01:35:08;101565.0;;;26.13;37.72
64019;BME280;66942;52.138;5.216;2023-06-10T01:38:25;101565.0;;;26.25;36.99
64019;BME280;66942;52.138;5.216;2023-06-10T01:40:04;101565.0;;;26.25;36.85
64019;BME280;66942;52.138;5.216;2023-06-10T01:41:43;101559.0;;;26.14;37.14
64019;BME280;66942;52.138;5.216;2023-06-10T01:44:56;101562.0;;;25.92;37.81
64019;BME280;66942;52.138;5.216;2023-06-10T01:46:32;101565.0;;;26.1;37.08
64019;BME280;66942;52.138;5.216;2023-06-10T01:48:09;101560.0;;;26.25;36.5
64019;BME280;66942;52.138;5.216;2023-06-10T01:49:45;101564.0;;;26.05;36.83
64019;BME280;66942;52.138;5.216;2023-06-10T01:52:59;101564.0;;;25.71;38.18
64019;BME280;66942;52.138;5.216;2023-06-10T01:54:35;101563.0;;;25.81;37.74
64019;BME280;66942;52.138;5.216;2023-06-10T01:56:11;101563.0;;;25.84;36.6
64019;BME280;66942;52.138;5.216;2023-06-10T01:59:23;101563.0;;;25.63;37.92
64019;BME280;66942;52.138;5.216;2023-06-10T02:00:59;101561.0;;;25.59;38.17
64019;BME280;66942;52.138;5.216;2023-06-10T02:02:35;101567.0;;;25.43;38.54
64019;BME280;66942;52.138;5.216;2023-06-10T02:05:48;101567.0;;;25.45;38.24
64019;BME280;66942;52.138;5.216;2023-06-10T02:07:24;101571.0;;;25.69;37.22
64019;BME280;66942;52.138;5.216;2023-06-10T02:09:00;101567.0;;;25.66;37.12
64019;BME280;66942;52.138;5.216;2023-06-10T02:10:36;101569.0;;;25.87;36.69
64019;BME280;66942;52.138;5.216;2023-06-10T02:13:49;101565.0;;;25.83;36.79
64019;BME280;66942;52.138;5.216;2023-06-10T02:15:25;101564.0;;;25.68;37.4
64019;BME280;66942;52.138;5.216;2023-06-10T02:17:01;101566.0;;;25.67;37.12
64019;BME280;66942;52.138;5.216;2023-06-10T02:20:13;101570.0;;;25.62;37.39
64019;BME280;66942;52.138;5.216;2023-06-10T02:21:49;101566.0;;;25.69;37.28
64019;BME280;66942;52.138;5.216;2023-06-10T02:23:26;101569.0;;;25.76;37.21
64019;BME280;66942;52.138;5.216;2023-06-10T02:26:39;101574.0;;;25.72;36.92
64019;BME280;66942;52.138;5.216;2023-06-10T02:28:16;101580.0;;;25.8;36.71
64019;BME280;66942;52.138;5.216;2023-06-10T02:29:52;101574.0;;;25.57;37.49
64019;BME280;66942;52.138;5.216;2023-06-10T02:31:29;101574.0;;;25.45;37.62
64019;BME280;66942;52.138;5.216;2023-06-10T02:34:41;101580.0;;;25.33;38.35
64019;BME280;66942;52.138;5.216;2023-06-10T02:36:17;101586.0;;;25.5;37.62
64019;BME280;66942;52.138;5.216;2023-06-10T02:37:53;101583.0;;;25.54;37.62
64019;BME280;66942;52.138;5.216;2023-06-10T02:41:05;101583.0;;;25.6;37.37
64019;BME280;66942;52.138;5.216;2023-06-10T02:42:42;101585.0;;;25.57;37.67
64019;BME280;66942;52.138;5.216;2023-06-10T02:44:18;101581.0;;;25.51;37.67
64019;BME280;66942;52.138;5.216;2023-06-10T02:47:30;101580.0;;;25.62;37.47
64019;BME280;66942;52.138;5.216;2023-06-10T02:49:06;101580.0;;;25.61;37.33
64019;BME280;66942;52.138;5.216;2023-06-10T02:50:42;101582.0;;;25.53;37.56
64019;BME280;66942;52.138;5.216;2023-06-10T02:53:56;101580.0;;;25.48;37.74
64019;BME280;66942;52.138;5.216;2023-06-10T02:55:32;101577.0;;;25.41;37.92
64019;BME280;66942;52.138;5.216;2023-06-10T02:57:08;101580.0;;;25.25;38.47
64019;BME280;66942;52.138;5.216;2023-06-10T02:58:44;101576.0;;;25.17;38.08
64019;BME280;66942;52.138;5.216;2023-06-10T03:01:57;101575.0;;;25.19;38.17
64019;BME280;66942;52.138;5.216;2023-06-10T03:03:33;101575.0;;;25.29;37.89
64019;BME280;66942;52.138;5.216;2023-06-10T03:05:09;101576.0;;;25.31;37.83
64019;BME280;66942;52.138;5.216;2023-06-10T03:08:21;101580.0;;;25.24;38.08
64019;BME280;66942;52.138;5.216;2023-06-10T03:09:57;101577.0;;;25.25;38.07
64019;BME280;66942;52.138;5.216;2023-06-10T03:11:34;101577.0;;;25.29;37.49
64019;BME280;66942;52.138;5.216;2023-06-10T03:14:46;101577.0;;;25.12;38.0
64019;BME280;66942;52.138;5.216;2023-06-10T03:16:22;101577.0;;;24.97;39.1
64019;BME280;66942;52.138;5.216;2023-06-10T03:17:58;101581.0;;;25.03;38.69
64019;BME280;66942;52.138;5.216;2023-06-10T03:19:35;101582.0;;;25.01;38.67
64019;BME280;66942;52.138;5.216;2023-06-10T03:22:47;101578.0;;;24.85;38.79
64019;BME280;66942;52.138;5.216;2023-06-10T03:24:23;101581.0;;;24.97;38.4
64019;BME280;66942;52.138;5.216;2023-06-10T03:25:59;101582.0;;;24.96;38.46
64019;BME280;66942;52.138;5.216;2023-06-10T03:29:11;101582.0;;;25.0;38.74
64019;BME280;66942;52.138;5.216;2023-06-10T03:30:48;101584.0;;;25.02;38.46
64019;BME280;66942;52.138;5.216;2023-06-10T03:32:24;101583.0;;;24.95;38.93
64019;BME280;66942;52.138;5.216;2023-06-10T03:35:36;101585.0;;;25.05;38.9
64019;BME280;66942;52.138;5.216;2023-06-10T03:37:13;101583.0;;;24.96;38.46
64019;BME280;66942;52.138;5.216;2023-06-10T03:38:48;101588.0;;;24.92;39.25
64019;BME280;66942;52.138;5.216;2023-06-10T03:42:01;101585.0;;;24.9;38.92
64019;BME280;66942;52.138;5.216;2023-06-10T03:43:37;101585.0;;;24.9;39.36
64019;BME280;66942;52.138;5.216;2023-06-10T03:45:13;101586.0;;;24.95;39.11
64019;BME280;66942;52.138;5.216;2023-06-10T03:46:49;101589.0;;;24.9;39.46
64019;BME280;66942;52.138;5.216;2023-06-10T03:50:02;101588.0;;;24.92;39.11
64019;BME280;66942;52.138;5.216;2023-06-10T03:51:38;101593.0;;;24.94;38.46
64019;BME280;66942;52.138;5.216;2023-06-10T03:53:14;101593.0;;;24.96;38.92
64019;BME280;66942;52.138;5.216;2023-06-10T03:56:26;101594.0;;;25.02;38.51
64019;BME280;66942;52.138;5.216;2023-06-10T03:58:03;101594.0;;;25.08;38.6
64019;BME280;66942;52.138;5.216;2023-06-10T03:59:39;101598.0;;;25.01;39.0
64019;BME280;66942;52.138;5.216;2023-06-10T04:02:51;101595.0;;;25.06;38.85
64019;BME280;66942;52.138;5.216;2023-06-10T04:04:27;101595.0;;;25.0;38.56
64019;BME280;66942;52.138;5.216;2023-06-10T04:06:04;101598.0;;;25.15;38.28
64019;BME280;66942;52.138;5.216;2023-06-10T04:09:16;101600.0;;;25.21;37.96
64019;BME280;66942;52.138;5.216;2023-06-10T04:10:52;101600.0;;;25.24;37.9
64019;BME280;66942;52.138;5.216;2023-06-10T04:12:28;101603.0;;;25.38;37.79
64019;BME280;66942;52.138;5.216;2023-06-10T04:14:04;101605.0;;;25.48;38.14
64019;BME280;66942;52.138;5.216;2023-06-10T04:17:17;101602.0;;;25.48;37.68
64019;BME280;66942;52.138;5.216;2023-06-10T04:18:53;101606.0;;;25.51;37.89
64019;BME280;66942;52.138;5.216;2023-06-10T04:20:29;101603.0;;;25.51;38.53
64019;BME280;66942;52.138;5.216;2023-06-10T04:23:41;101605.0;;;25.58;37.61
64019;BME280;66942;52.138;5.216;2023-06-10T04:25:18;101610.0;;;25.67;37.6
64019;BME280;66942;52.138;5.216;2023-06-10T04:26:54;101611.0;;;25.36;37.97
64019;BME280;66942;52.138;5.216;2023-06-10T04:30:07;101616.0;;;25.58;38.24
64019;BME280;66942;52.138;5.216;2023-06-10T04:31:42;101613.0;;;25.64;37.49
64019;BME280;66942;52.138;5.216;2023-06-10T04:33:18;101616.0;;;25.69;37.62
64019;BME280;66942;52.138;5.216;2023-06-10T04:34:55;101614.0;;;25.68;37.28
64019;BME280;66942;52.138;5.216;2023-06-10T04:38:07;101615.0;;;25.85;37.28
64019;BME280;66942;52.138;5.216;2023-06-10T04:39:43;101620.0;;;25.91;37.14
64019;BME280;66942;52.138;5.216;2023-06-10T04:41:19;101619.0;;;26.0;36.92
64019;BME280;66942;52.138;5.216;2023-06-10T04:44:32;101622.0;;;26.03;37.17
64019;BME280;66942;52.138;5.216;2023-06-10T04:46:08;101621.0;;;25.97;37.51
64019;BME280;66942;52.138;5.216;2023-06-10T04:47:44;101630.0;;;26.03;37.79
64019;BME280;66942;52.138;5.216;2023-06-10T04:50:58;101628.0;;;26.14;37.46
64019;BME280;66942;52.138;5.216;2023-06-10T04:52:35;101624.0;;;26.21;36.71
64019;BME280;66942;52.138;5.216;2023-06-10T04:54:11;101625.0;;;26.37;36.92
64019;BME280;66942;52.138;5.216;2023-06-10T04:57:23;101626.0;;;26.34;36.81
64019;BME280;66942;52.138;5.216;2023-06-10T04:58:59;101627.0;;;26.36;36.54
64019;BME280;66942;52.138;5.216;2023-06-10T05:00:35;101628.0;;;26.43;36.33
64019;BME280;66942;52.138;5.216;2023-06-10T05:02:12;101627.0;;;26.45;36.53
64019;BME280;66942;52.138;5.216;2023-06-10T05:05:24;101627.0;;;26.6;36.53
64019;BME280;66942;52.138;5.216;2023-06-10T05:07:00;101633.0;;;26.84;36.33
64019;BME280;66942;52.138;5.216;2023-06-10T05:08:36;101628.0;;;26.63;36.69
64019;BME280;66942;52.138;5.216;2023-06-10T05:11:48;101632.0;;;26.93;36.6
64019;BME280;66942;52.138;5.216;2023-06-10T05:13:25;101633.0;;;26.9;36.67
64019;BME280;66942;52.138;5.216;2023-06-10T05:15:01;101633.0;;;26.9;36.19
64019;BME280;66942;52.138;5.216;2023-06-10T05:18:13;101632.0;;;27.06;36.53
64019;BME280;66942;52.138;5.216;2023-06-10T05:19:49;101631.0;;;27.19;36.39
64019;BME280;66942;52.138;5.216;2023-06-10T05:21:25;101627.0;;;27.26;35.79
64019;BME280;66942;52.138;5.216;2023-06-10T05:23:02;101627.0;;;27.48;35.89
64019;BME280;66942;52.138;5.216;2023-06-10T05:26:14;101630.0;;;27.61;35.87
64019;BME280;66942;52.138;5.216;2023-06-10T05:27:50;101632.0;;;27.66;35.61
64019;BME280;66942;52.138;5.216;2023-06-10T05:29:27;101634.0;;;27.89;35.14
64019;BME280;66942;52.138;5.216;2023-06-10T05:32:39;101631.0;;;27.89;35.28
64019;BME280;66942;52.138;5.216;2023-06-10T05:34:15;101633.0;;;27.97;35.1
64019;BME280;66942;52.138;5.216;2023-06-10T05:35:51;101632.0;;;28.16;35.17
64019;BME280;66942;52.138;5.216;2023-06-10T05:39:04;101634.0;;;28.23;35.24
64019;BME280;66942;52.138;5.216;2023-06-10T05:40:40;101636.0;;;28.37;34.89
64019;BME280;66942;52.138;5.216;2023-06-10T05:42:16;101634.0;;;28.3;35.71
64019;BME280;66942;52.138;5.216;2023-06-10T05:45:27;101636.0;;;28.41;34.11
64019;BME280;66942;52.138;5.216;2023-06-10T05:47:04;101633.0;;;28.39;34.4
64019;BME280;66942;52.138;5.216;2023-06-10T05:48:40;101634.0;;;28.55;34.36
64019;BME280;66942;52.138;5.216;2023-06-10T05:50:17;101633.0;;;28.48;34.69
64019;BME280;66942;52.138;5.216;2023-06-10T05:53:29;101634.0;;;28.46;33.89
64019;BME280;66942;52.138;5.216;2023-06-10T05:55:06;101632.0;;;28.73;33.67
64019;BME280;66942;52.138;5.216;2023-06-10T05:56:42;101637.0;;;28.64;33.83
64019;BME280;66942;52.138;5.216;2023-06-10T05:59:56;101640.0;;;28.64;34.25
64019;BME280;66942;52.138;5.216;2023-06-10T06:01:32;101637.0;;;28.45;33.87
64019;BME280;66942;52.138;5.216;2023-06-10T06:03:09;101639.0;;;28.83;34.19
64019;BME280;66942;52.138;5.216;2023-06-10T06:06:21;101635.0;;;28.68;33.62
64019;BME280;66942;52.138;5.216;2023-06-10T06:07:58;101635.0;;;28.85;33.47
64019;BME280;66942;52.138;5.216;2023-06-10T06:09:34;101638.0;;;28.92;33.83
64019;BME280;66942;52.138;5.216;2023-06-10T06:11:10;101640.0;;;28.99;33.78
64019;BME280;66942;52.138;5.216;2023-06-10T06:14:22;101642.0;;;29.17;33.87
64019;BME280;66942;52.138;5.216;2023-06-10T06:15:58;101638.0;;;29.29;33.25
64019;BME280;66942;52.138;5.216;2023-06-10T06:17:35;101639.0;;;29.44;33.17
64019;BME280;66942;52.138;5.216;2023-06-10T06:20:47;101637.0;;;29.44;33.42
64019;BME280;66942;52.138;5.216;2023-06-10T06:22:23;101634.0;;;29.53;32.89
64019;BME280;66942;52.138;5.216;2023-06-10T06:23:59;101628.0;;;28.94;32.46
64019;BME280;66942;52.138;5.216;2023-06-10T06:27:11;101630.0;;;29.52;32.6
64019;BME280;66942;52.138;5.216;2023-06-10T06:28:48;101630.0;;;29.73;32.35
64019;BME280;66942;52.138;5.216;2023-06-10T06:30:24;101627.0;;;29.57;32.04
64019;BME280;66942;52.138;5.216;2023-06-10T06:33:36;101630.0;;;29.88;32.05
64019;BME280;66942;52.138;5.216;2023-06-10T06:35:12;101628.0;;;29.73;33.3
64019;BME280;66942;52.138;5.216;2023-06-10T06:36:48;101630.0;;;29.69;32.29
64019;BME280;66942;52.138;5.216;2023-06-10T06:38:25;101631.0;;;29.6;31.9
64019;BME280;66942;52.138;5.216;2023-06-10T06:41:37;101630.0;;;29.96;31.73
64019;BME280;66942;52.138;5.216;2023-06-10T06:43:13;101630.0;;;29.98;31.5
64019;BME280;66942;52.138;5.216;2023-06-10T06:44:49;101635.0;;;29.91;31.77
64019;BME280;66942;52.138;5.216;2023-06-10T06:48:02;101628.0;;;30.19;31.78
64019;BME280;66942;52.138;5.216;2023-06-10T06:49:38;101631.0;;;29.92;31.49
64019;BME280;66942;52.138;5.216;2023-06-10T06:51:14;101633.0;;;30.21;31.26
64019;BME280;66942;52.138;5.216;2023-06-10T06:54:26;101631.0;;;30.19;30.92
64019;BME280;66942;52.138;5.216;2023-06-10T06:56:03;101635.0;;;30.07;30.74
64019;BME280;66942;52.138;5.216;2023-06-10T06:57:39;101631.0;;;30.22;30.49
64019;BME280;66942;52.138;5.216;2023-06-10T06:59:15;101635.0;;;30.34;30.54
64019;BME280;66942;52.138;5.216;2023-06-10T07:02:27;101630.0;;;30.31;30.74
64019;BME280;66942;52.138;5.216;2023-06-10T07:04:03;101633.0;;;30.58;30.79
64019;BME280;66942;52.138;5.216;2023-06-10T07:05:40;101633.0;;;30.48;29.97
64019;BME280;66942;52.138;5.216;2023-06-10T07:08:52;101636.0;;;30.73;30.06
64019;BME280;66942;52.138;5.216;2023-06-10T07:10:28;101638.0;;;30.88;30.27
64019;BME280;66942;52.138;5.216;2023-06-10T07:12:05;101636.0;;;30.82;30.03
64019;BME280;66942;52.138;5.216;2023-06-10T07:15:18;101635.0;;;31.32;29.53
64019;BME280;66942;52.138;5.216;2023-06-10T07:16:54;101638.0;;;31.45;29.26
64019;BME280;66942;52.138;5.216;2023-06-10T07:18:30;101646.0;;;31.66;29.03
64019;BME280;66942;52.138;5.216;2023-06-10T07:21:43;101642.0;;;31.74;29.58
64019;BME280;66942;52.138;5.216;2023-06-10T07:23:20;101642.0;;;31.79;29.34
64019;BME280;66942;52.138;5.216;2023-06-10T07:24:56;101641.0;;;31.79;29.03
64019;BME280;66942;52.138;5.216;2023-06-10T07:26:33;101645.0;;;31.74;29.33
64019;BME280;66942;52.138;5.216;2023-06-10T07:29:45;101648.0;;;31.92;28.77
64019;BME280;66942;52.138;5.216;2023-06-10T07:31:22;101644.0;;;32.21;28.53
64019;BME280;66942;52.138;5.216;2023-06-10T07:32:59;101647.0;;;32.06;28.2
64019;BME280;66942;52.138;5.216;2023-06-10T07:36:11;101650.0;;;32.03;27.74
64019;BME280;66942;52.138;5.216;2023-06-10T07:37:47;101648.0;;;32.26;28.0
64019;BME280;66942;52.138;5.216;2023-06-10T07:39:23;101648.0;;;32.24;27.72
64019;BME280;66942;52.138;5.216;2023-06-10T07:42:36;101640.0;;;32.49;27.13
64019;BME280;66942;52.138;5.216;2023-06-10T07:44:12;101642.0;;;32.68;27.71
64019;BME280;66942;52.138;5.216;2023-06-10T07:45:48;101646.0;;;32.8;27.52
64019;BME280;66942;52.138;5.216;2023-06-10T07:47:24;101645.0;;;33.01;27.56
64019;BME280;66942;52.138;5.216;2023-06-10T07:50:37;101647.0;;;33.5;27.69
64019;BME280;66942;52.138;5.216;2023-06-10T07:52:13;101649.0;;;33.64;26.9
64019;BME280;66942;52.138;5.216;2023-06-10T07:53:49;101651.0;;;33.83;25.9
64019;BME280;66942;52.138;5.216;2023-06-10T07:57:01;101648.0;;;33.92;25.66
64019;BME280;66942;52.138;5.216;2023-06-10T07:58:37;101652.0;;;34.35;26.74
64019;BME280;66942;52.138;5.216;2023-06-10T08:00:14;101647.0;;;34.71;25.24
64019;BME280;66942;52.138;5.216;2023-06-10T08:03:27;101651.0;;;34.72;25.98
64019;BME280;66942;52.138;5.216;2023-06-10T08:05:04;101650.0;;;35.08;24.68
64019;BME280;66942;52.138;5.216;2023-06-10T08:06:40;101647.0;;;35.36;26.01
64019;BME280;66942;52.138;5.216;2023-06-10T08:08:16;101648.0;;;35.44;24.5
64019;BME280;66942;52.138;5.216;2023-06-10T08:11:29;101650.0;;;35.43;23.09
64019;BME280;66942;52.138;5.216;2023-06-10T08:13:05;101649.0;;;36.01;23.52
64019;BME280;66942;52.138;5.216;2023-06-10T08:14:41;101648.0;;;35.99;22.48
64019;BME280;66942;52.138;5.216;2023-06-10T08:17:53;101648.0;;;35.99;23.18
64019;BME280;66942;52.138;5.216;2023-06-10T08:19:30;101646.0;;;36.29;22.84
64019;BME280;66942;52.138;5.216;2023-06-10T08:21:06;101646.0;;;36.44;22.66
64019;BME280;66942;52.138;5.216;2023-06-10T08:24:18;101643.0;;;36.35;22.59
64019;BME280;66942;52.138;5.216;2023-06-10T08:25:54;101647.0;;;36.4;22.54
64019;BME280;66942;52.138;5.216;2023-06-10T08:27:30;101643.0;;;36.44;22.64
64019;BME280;66942;52.138;5.216;2023-06-10T08:30:43;101645.0;;;36.36;22.46
64019;BME280;66942;52.138;5.216;2023-06-10T08:32:19;101647.0;;;36.19;22.68
64019;BME280;66942;52.138;5.216;2023-06-10T08:33:55;101642.0;;;36.65;22.86
64019;BME280;66942;52.138;5.216;2023-06-10T08:35:31;101645.0;;;36.06;22.59
64019;BME280;66942;52.138;5.216;2023-06-10T08:38:44;101641.0;;;36.46;22.53
64019;BME280;66942;52.138;5.216;2023-06-10T08:40:20;101644.0;;;36.28;22.64
64019;BME280;66942;52.138;5.216;2023-06-10T08:42:01;101644.0;;;36.42;22.4
64019;BME280;66942;52.138;5.216;2023-06-10T08:45:47;101642.0;;;36.67;22.32
64019;BME280;66942;52.138;5.216;2023-06-10T08:47:25;101641.0;;;36.74;23.29
64019;BME280;66942;52.138;5.216;2023-06-10T08:49:03;101641.0;;;36.46;22.59
64019;BME280;66942;52.138;5.216;2023-06-10T08:50:41;101645.0;;;36.68;23.32
64019;BME280;66942;52.138;5.216;2023-06-10T08:52:19;101636.0;;;36.93;21.92
64019;BME280;66942;52.138;5.216;2023-06-10T08:55:41;101642.0;;;36.74;22.99
64019;BME280;66942;52.138;5.216;2023-06-10T08:57:18;101638.0;;;36.47;22.27
64019;BME280;66942;52.138;5.216;2023-06-10T08:58:54;101638.0;;;36.33;22.62
64019;BME280;66942;52.138;5.216;2023-06-10T09:02:08;101640.0;;;36.51;22.29
64019;BME280;66942;52.138;5.216;2023-06-10T09:03:45;101647.0;;;36.6;22.37
64019;BME280;66942;52.138;5.216;2023-06-10T09:05:22;101644.0;;;36.61;22.24
64019;BME280;66942;52.138;5.216;2023-06-10T09:06:58;101646.0;;;36.14;22.63
64019;BME280;66942;52.138;5.216;2023-06-10T09:10:12;101648.0;;;36.51;22.57
64019;BME280;66942;52.138;5.216;2023-06-10T09:11:48;101643.0;;;36.47;22.74
64019;BME280;66942;52.138;5.216;2023-06-10T09:13:24;101643.0;;;36.17;22.58
64019;BME280;66942;52.138;5.216;2023-06-10T09:16:37;101642.0;;;36.21;22.22
64019;BME280;66942;52.138;5.216;2023-06-10T09:18:14;101646.0;;;36.67;22.62
64019;BME280;66942;52.138;5.216;2023-06-10T09:19:50;101637.0;;;36.99;22.23
64019;BME280;66942;52.138;5.216;2023-06-10T09:23:04;101640.0;;;37.07;21.15
64019;BME280;66942;52.138;5.216;2023-06-10T09:24:41;101641.0;;;37.18;20.76
64019;BME280;66942;52.138;5.216;2023-06-10T09:26:18;101643.0;;;37.46;20.89
64019;BME280;66942;52.138;5.216;2023-06-10T09:27:55;101635.0;;;37.64;21.43
64019;BME280;66942;52.138;5.216;2023-06-10T09:31:07;101630.0;;;37.56;20.73
64019;BME280;66942;52.138;5.216;2023-06-10T09:32:43;101633.0;;;37.57;20.62
64019;BME280;66942;52.138;5.216;2023-06-10T09:34:24;101632.0;;;37.81;20.37
64019;BME280;66942;52.138;5.216;2023-06-10T09:37:38;101632.0;;;37.79;20.77
64019;BME280;66942;52.138;5.216;2023-06-10T09:39:16;101634.0;;;38.01;21.42
64019;BME280;66942;52.138;5.216;2023-06-10T09:40:53;101642.0;;;37.64;20.67
64019;BME280;66942;52.138;5.216;2023-06-10T09:42:32;101638.0;;;38.1;20.57
64019;BME280;66942;52.138;5.216;2023-06-10T09:45:49;101636.0;;;38.18;20.25
64019;BME280;66942;52.138;5.216;2023-06-10T09:47:26;101628.0;;;38.07;19.91
64019;BME280;66942;52.138;5.216;2023-06-10T09:49:02;101637.0;;;37.86;20.36
64019;BME280;66942;52.138;5.216;2023-06-10T09:52:21;101632.0;;;38.37;19.7
64019;BME280;66942;52.138;5.216;2023-06-10T09:53:58;101636.0;;;37.92;19.29
64019;BME280;66942;52.138;5.216;2023-06-10T09:55:37;101634.0;;;38.0;19.12
64019;BME280;66942;52.138;5.216;2023-06-10T09:57:13;101631.0;;;38.4;19.23
64019;BME280;66942;52.138;5.216;2023-06-10T10:00:31;101637.0;;;38.24;20.67
64019;BME280;66942;52.138;5.216;2023-06-10T10:02:13;101633.0;;;38.6;20.45
64019;BME280;66942;52.138;5.216;2023-06-10T10:03:50;101633.0;;;38.44;20.11
64019;BME280;66942;52.138;5.216;2023-06-10T10:05:27;101632.0;;;38.07;21.06
64019;BME280;66942;52.138;5.216;2023-06-10T10:08:40;101630.0;;;38.54;19.91
64019;BME280;66942;52.138;5.216;2023-06-10T10:10:19;101630.0;;;37.72;19.04
64019;BME280;66942;52.138;5.216;2023-06-10T10:11:57;101630.0;;;38.36;19.68
64019;BME280;66942;52.138;5.216;2023-06-10T10:15:11;101626.0;;;38.25;18.89
64019;BME280;66942;52.138;5.216;2023-06-10T10:16:48;101620.0;;;38.64;19.03
64019;BME280;66942;52.138;5.216;2023-06-10T10:18:29;101618.0;;;37.99;19.41
64019;BME280;66942;52.138;5.216;2023-06-10T10:20:07;101626.0;;;38.25;18.12
64019;BME280;66942;52.138;5.216;2023-06-10T10:23:31;101618.0;;;38.35;18.68
64019;BME280;66942;52.138;5.216;2023-06-10T10:25:24;101627.0;;;38.49;18.52
64019;BME280;66942;52.138;5.216;2023-06-10T10:27:05;101617.0;;;38.56;18.46
64019;BME280;66942;52.138;5.216;2023-06-10T10:28:49;101618.0;;;38.35;18.41
64019;BME280;66942;52.138;5.216;2023-06-10T10:30:47;101627.0;;;38.31;18.72
64019;BME280;66942;52.138;5.216;2023-06-10T10:34:16;101619.0;;;38.56;18.66
64019;BME280;66942;52.138;5.216;2023-06-10T10:35:56;101620.0;;;38.68;18.16
64019;BME280;66942;52.138;5.216;2023-06-10T10:37:33;101618.0;;;38.31;18.21
64019;BME280;66942;52.138;5.216;2023-06-10T10:39:12;101614.0;;;38.81;19.04
64019;BME280;66942;52.138;5.216;2023-06-10T10:42:26;101614.0;;;38.78;18.14
64019;BME280;66942;52.138;5.216;2023-06-10T10:44:03;101613.0;;;38.87;18.71
64019;BME280;66942;52.138;5.216;2023-06-10T10:45:40;101607.0;;;38.89;17.64
64019;BME280;66942;52.138;5.216;2023-06-10T10:47:19;101610.0;;;38.89;18.98
64019;BME280;66942;52.138;5.216;2023-06-10T10:50:36;101605.0;;;38.96;17.18
64019;BME280;66942;52.138;5.216;2023-06-10T10:52:13;101613.0;;;38.25;16.96
64019;BME280;66942;52.138;5.216;2023-06-10T10:54:10;101610.0;;;38.69;16.46
64019;BME280;66942;52.138;5.216;2023-06-10T10:56:05;101612.0;;;38.92;16.16
64019;BME280;66942;52.138;5.216;2023-06-10T10:59:19;101607.0;;;39.11;16.14
64019;BME280;66942;52.138;5.216;2023-06-10T11:00:55;101605.0;;;38.54;15.81
64019;BME280;66942;52.138;5.216;2023-06-10T11:02:33;101603.0;;;38.71;16.2
64019;BME280;66942;52.138;5.216;2023-06-10T11:04:18;101602.0;;;39.06;16.84
64019;BME280;66942;52.138;5.216;2023-06-10T11:07:34;101603.0;;;38.39;16.13